Time;durP1;ratioP1;P1;durP2;ratioP2;P2;SDS_P1;SDS_P2;PMS_P1;PMS_P2;Temp;Humidity;BMP_temperature;BMP_pressure;BME280_temperature;BME280_humidity;BME280_pressure;Samples;Min_cycle;Max_cycle;Signal;HPM_P1;HPM_P2
2022/05/12 00:01:48;;;;;;;7.47;5.73;;;19.50;99.90;;;;;;5054658;28;20531;-46
2022/05/12 00:04:16;;;;;;;8.13;5.80;;;19.50;99.90;;;;;;5054553;28;20946;-44
2022/05/12 00:06:43;;;;;;;6.00;5.40;;;19.50;99.90;;;;;;5054650;28;20446;-39
2022/05/12 00:09:09;;;;;;;10.87;6.60;;;19.40;99.90;;;;;;5054640;28;20447;-53
2022/05/12 00:11:36;;;;;;;6.57;5.83;;;19.40;99.90;;;;;;5054344;28;20761;-44
2022/05/12 00:14:03;;;;;;;6.93;5.70;;;19.40;99.90;;;;;;5054812;28;20462;-44
2022/05/12 00:16:30;;;;;;;6.30;5.57;;;19.40;99.90;;;;;;5054701;28;20443;-42
2022/05/12 00:18:57;;;;;;;4.93;4.53;;;19.40;99.90;;;;;;5054514;28;20466;-42
2022/05/12 00:21:25;;;;;;;6.77;5.53;;;19.40;99.90;;;;;;5054476;28;20974;-45
2022/05/12 00:23:57;;;;;;;6.80;5.10;;;19.40;99.90;;;;;;5054167;28;20451;-43
2022/05/12 00:26:24;;;;;;;7.73;5.27;;;19.30;99.90;;;;;;5054412;28;20557;-40
2022/05/12 00:28:52;;;;;;;6.50;5.50;;;19.30;99.90;;;;;;5054205;28;20447;-46
2022/05/12 00:31:19;;;;;;;5.30;4.60;;;19.30;99.90;;;;;;5054226;28;20456;-42
2022/05/12 00:33:47;;;;;;;6.00;5.50;;;19.20;99.90;;;;;;5054088;28;20516;-47
2022/05/12 00:36:13;;;;;;;5.17;4.67;;;19.20;99.90;;;;;;5054472;28;20477;-42
2022/05/12 00:38:42;;;;;;;5.37;4.70;;;19.20;99.90;;;;;;5056915;28;20462;-42
2022/05/12 00:41:09;;;;;;;12.33;5.63;;;19.20;99.90;;;;;;5058129;28;20850;-42
2022/05/12 00:43:40;;;;;;;5.07;4.57;;;19.30;99.90;;;;;;5057786;28;20474;-41
2022/05/12 00:46:09;;;;;;;7.60;6.60;;;19.30;99.90;;;;;;5058131;28;20466;-41
2022/05/12 00:48:37;;;;;;;8.93;5.80;;;19.30;99.90;;;;;;5057879;28;20490;-41
2022/05/12 00:51:05;;;;;;;7.93;5.30;;;19.30;99.90;;;;;;5057750;28;20815;-38
2022/05/12 00:53:35;;;;;;;5.90;4.53;;;19.40;99.90;;;;;;5057943;28;20455;-42
2022/05/12 00:56:04;;;;;;;7.20;4.90;;;19.40;99.90;;;;;;5057851;28;20450;-45
2022/05/12 00:58:33;;;;;;;5.10;4.67;;;19.40;99.90;;;;;;5057805;28;20466;-36
2022/05/12 01:01:00;;;;;;;5.30;4.80;;;19.40;99.90;;;;;;5057557;28;20538;-42
2022/05/12 01:03:28;;;;;;;5.57;4.97;;;19.40;99.90;;;;;;5057445;28;20446;-46
2022/05/12 01:05:56;;;;;;;5.20;4.70;;;19.40;99.90;;;;;;5057688;28;20485;-44
2022/05/12 01:08:24;;;;;;;7.37;4.97;;;19.40;99.90;;;;;;5057652;28;20481;-46
2022/05/12 01:10:55;;;;;;;7.27;4.77;;;19.40;99.90;;;;;;5057914;28;20471;-41
2022/05/12 01:13:23;;;;;;;6.23;5.40;;;19.40;99.90;;;;;;5057690;28;20436;-45
2022/05/12 01:15:52;;;;;;;6.33;5.27;;;19.40;99.90;;;;;;5057594;28;20459;-44
2022/05/12 01:18:20;;;;;;;4.90;4.40;;;19.40;99.90;;;;;;5057599;28;20459;-44
2022/05/12 01:20:47;;;;;;;6.07;4.60;;;19.50;99.90;;;;;;5057136;28;20483;-40
2022/05/12 01:23:36;;;;;;;6.93;5.53;;;19.50;99.90;;;;;;5057162;28;20453;-42
2022/05/12 01:26:05;;;;;;;9.47;6.00;;;19.50;99.90;;;;;;5057378;28;20736;-38
2022/05/12 01:28:32;;;;;;;6.40;5.30;;;19.40;99.90;;;;;;5057121;28;20467;-43
2022/05/12 01:31:00;;;;;;;7.27;5.10;;;19.30;99.90;;;;;;5056980;28;20900;-41
2022/05/12 01:33:27;;;;;;;5.63;5.03;;;19.20;99.90;;;;;;5057149;28;20472;-41
2022/05/12 01:35:53;;;;;;;5.07;4.57;;;19.10;99.90;;;;;;5057369;28;20501;-41
2022/05/12 01:38:20;;;;;;;7.60;4.63;;;19.00;99.90;;;;;;5057173;28;20521;-39
2022/05/12 01:40:49;;;;;;;7.00;4.50;;;18.90;99.90;;;;;;5056942;28;20525;-41
2022/05/12 01:43:18;;;;;;;6.57;5.93;;;18.80;99.90;;;;;;5057110;28;20485;-41
2022/05/12 01:45:46;;;;;;;6.70;4.00;;;18.60;99.90;;;;;;5057432;28;20443;-42
2022/05/12 01:48:14;;;;;;;9.80;6.10;;;18.50;99.90;;;;;;5057338;28;20881;-37
2022/05/12 01:50:43;;;;;;;5.40;4.90;;;18.40;99.90;;;;;;5057128;28;20467;-41
2022/05/12 01:53:10;;;;;;;9.17;6.13;;;18.30;99.90;;;;;;5056950;28;20504;-41
2022/05/12 01:55:38;;;;;;;7.73;5.80;;;18.20;99.90;;;;;;5056800;28;20574;-39
2022/05/12 01:58:06;;;;;;;6.73;4.47;;;18.10;99.90;;;;;;5056655;28;20474;-38
2022/05/12 02:00:34;;;;;;;7.67;4.80;;;18.00;99.90;;;;;;5056555;28;20571;-41
2022/05/12 02:03:01;;;;;;;9.23;5.60;;;18.00;99.90;;;;;;5056480;28;20877;-42
2022/05/12 02:05:28;;;;;;;6.07;4.90;;;17.80;99.90;;;;;;5056399;28;20467;-45
2022/05/12 02:07:55;;;;;;;9.70;5.37;;;17.80;99.90;;;;;;5056532;28;20447;-40
2022/05/12 02:10:24;;;;;;;7.20;5.90;;;17.70;99.90;;;;;;5056440;28;20485;-42
2022/05/12 02:12:51;;;;;;;8.10;5.60;;;17.70;99.90;;;;;;5056511;28;20478;-41
2022/05/12 02:15:20;;;;;;;4.70;4.30;;;17.60;99.90;;;;;;5056494;28;20513;-43
2022/05/12 02:17:46;;;;;;;5.67;4.67;;;17.60;99.90;;;;;;5056041;28;20481;-42
2022/05/12 02:20:14;;;;;;;5.50;5.00;;;17.60;99.90;;;;;;5056381;28;20444;-40
2022/05/12 02:22:42;;;;;;;6.30;5.30;;;17.60;99.90;;;;;;5055831;28;20470;-40
2022/05/12 02:25:09;;;;;;;5.87;4.87;;;17.50;99.90;;;;;;5056171;28;20435;-44
2022/05/12 02:27:42;;;;;;;6.07;3.67;;;17.50;99.90;;;;;;5056082;28;20478;-41
2022/05/12 02:30:11;;;;;;;4.97;4.33;;;17.50;99.90;;;;;;5056072;28;20459;-40
2022/05/12 02:32:39;;;;;;;7.23;4.23;;;17.50;99.90;;;;;;5055769;28;20450;-41
2022/05/12 02:35:06;;;;;;;6.40;3.73;;;17.40;99.90;;;;;;5056683;28;20467;-42
2022/05/12 02:37:33;;;;;;;5.57;4.13;;;17.40;99.90;;;;;;5055906;28;20505;-46
2022/05/12 02:39:59;;;;;;;6.23;4.57;;;17.40;99.90;;;;;;5055937;28;20559;-43
2022/05/12 02:42:26;;;;;;;8.63;5.20;;;17.30;99.90;;;;;;5055567;28;20494;-36
2022/05/12 02:44:53;;;;;;;5.77;5.17;;;17.20;99.90;;;;;;5055620;28;20508;-40
2022/05/12 02:47:20;;;;;;;6.67;5.17;;;17.10;99.90;;;;;;5055583;28;20439;-42
2022/05/12 02:49:48;;;;;;;6.13;4.53;;;17.00;99.90;;;;;;5055520;28;20450;-40
2022/05/12 02:52:15;;;;;;;6.80;4.60;;;16.90;99.90;;;;;;5055497;28;20451;-40
2022/05/12 02:54:42;;;;;;;6.73;5.70;;;16.90;99.90;;;;;;5055753;28;20454;-41
2022/05/12 02:57:09;;;;;;;9.47;4.97;;;16.80;99.90;;;;;;5055443;28;20463;-42
2022/05/12 02:59:37;;;;;;;13.43;5.33;;;16.70;99.90;;;;;;5055496;28;20525;-41
2022/05/12 03:02:04;;;;;;;6.87;4.83;;;16.60;99.90;;;;;;5055103;28;20491;-48
2022/05/12 03:04:31;;;;;;;11.73;5.60;;;16.60;99.90;;;;;;5055634;28;20524;-49
2022/05/12 03:06:59;;;;;;;11.63;5.00;;;16.50;99.90;;;;;;5055646;28;20454;-46
2022/05/12 03:09:26;;;;;;;6.53;4.20;;;16.50;99.90;;;;;;5055508;28;20654;-50
2022/05/12 03:11:53;;;;;;;4.80;4.23;;;16.40;99.90;;;;;;5055723;28;20500;-42
2022/05/12 03:14:19;;;;;;;6.93;5.00;;;16.40;99.90;;;;;;5055160;28;20748;-42
2022/05/12 03:16:46;;;;;;;8.40;4.97;;;16.40;99.90;;;;;;5055264;28;20519;-43
2022/05/12 03:19:14;;;;;;;5.63;5.10;;;16.40;99.90;;;;;;5055160;28;20532;-42
2022/05/12 03:21:41;;;;;;;5.00;4.20;;;16.30;99.90;;;;;;5054835;28;21008;-42
2022/05/12 03:24:10;;;;;;;7.50;5.67;;;16.30;99.90;;;;;;5055110;28;20479;-46
2022/05/12 03:26:36;;;;;;;13.00;4.40;;;16.30;99.90;;;;;;5055036;28;20457;-41
2022/05/12 03:29:03;;;;;;;7.20;5.10;;;16.30;99.90;;;;;;5055018;28;20451;-40
2022/05/12 03:31:30;;;;;;;7.77;4.87;;;16.30;99.90;;;;;;5054731;28;20451;-41
2022/05/12 03:33:57;;;;;;;9.27;4.80;;;16.30;99.90;;;;;;5054645;28;20932;-39
2022/05/12 03:36:23;;;;;;;9.77;5.70;;;16.30;99.90;;;;;;5054524;28;21172;-41
2022/05/12 03:38:53;;;;;;;7.00;5.10;;;16.30;99.90;;;;;;5054826;28;20467;-45
2022/05/12 03:41:21;;;;;;;9.30;4.87;;;16.20;99.90;;;;;;5054539;28;20479;-44
2022/05/12 03:46:32;;;;;;;13.53;5.93;;;16.10;99.90;;;;;;5054701;28;20769;-41
2022/05/12 03:48:59;;;;;;;11.13;5.47;;;16.10;99.90;;;;;;5054821;28;20460;-41
2022/05/12 03:51:26;;;;;;;6.07;3.80;;;16.10;99.90;;;;;;5054559;28;20520;-41
2022/05/12 03:53:53;;;;;;;6.47;4.30;;;16.20;99.90;;;;;;5054908;28;20489;-42
2022/05/12 03:56:21;;;;;;;10.23;4.30;;;16.20;99.90;;;;;;5055092;28;20443;-41
2022/05/12 03:58:48;;;;;;;11.57;5.43;;;16.20;99.90;;;;;;5054656;28;20471;-40
2022/05/12 04:01:15;;;;;;;6.50;4.00;;;16.10;99.90;;;;;;5054454;28;20479;-42
2022/05/12 04:03:42;;;;;;;7.43;5.23;;;16.20;99.90;;;;;;5054871;28;20475;-39
2022/05/12 04:06:08;;;;;;;6.97;4.53;;;16.20;99.90;;;;;;5054707;28;20443;-42
2022/05/12 04:08:35;;;;;;;9.50;4.73;;;16.10;99.90;;;;;;5054591;28;20467;-39
2022/05/12 04:11:02;;;;;;;10.80;4.80;;;16.20;99.90;;;;;;5054628;28;20428;-37
2022/05/12 04:13:31;;;;;;;7.50;3.87;;;16.20;99.90;;;;;;5057252;28;20466;-44
2022/05/12 04:15:57;;;;;;;11.57;3.80;;;16.20;99.90;;;;;;5058548;28;20458;-40
2022/05/12 04:18:25;;;;;;;4.70;3.97;;;16.10;99.90;;;;;;5058604;28;20446;-38
2022/05/12 04:20:52;;;;;;;5.10;4.03;;;16.10;99.90;;;;;;5058360;28;20510;-41
2022/05/12 04:23:19;;;;;;;5.70;4.37;;;16.20;99.90;;;;;;5058229;28;20541;-42
2022/05/12 04:25:46;;;;;;;6.47;3.67;;;16.20;99.90;;;;;;5058586;28;20523;-43
2022/05/12 04:28:12;;;;;;;10.60;4.40;;;16.20;99.90;;;;;;5058328;28;20520;-37
2022/05/12 04:30:41;;;;;;;6.23;3.90;;;16.20;99.90;;;;;;5058196;28;20920;-45
2022/05/12 04:35:51;;;;;;;6.33;3.70;;;16.10;99.90;;;;;;5058518;28;20426;-43
2022/05/12 04:38:18;;;;;;;7.73;3.27;;;16.00;99.90;;;;;;5058278;28;20528;-39
2022/05/12 04:40:45;;;;;;;8.43;3.30;;;16.00;99.90;;;;;;5058139;28;20508;-41
2022/05/12 04:43:12;;;;;;;4.30;3.30;;;15.90;99.90;;;;;;5058085;28;20479;-43
2022/05/12 04:45:40;;;;;;;10.60;3.83;;;15.90;99.90;;;;;;5058154;28;20780;-42
2022/05/12 04:48:09;;;;;;;4.13;3.57;;;15.90;99.90;;;;;;5057917;28;20514;-38
2022/05/12 04:50:40;;;;;;;6.17;3.63;;;15.90;99.90;;;;;;5051911;28;20452;-40
2022/05/12 04:53:08;;;;;;;6.87;3.70;;;15.80;99.90;;;;;;5056563;28;20482;-43
2022/05/12 04:55:35;;;;;;;4.57;3.90;;;15.80;99.90;;;;;;5055142;28;20443;-39
2022/05/12 04:58:03;;;;;;;5.17;3.10;;;15.80;99.90;;;;;;5055816;28;20446;-40
2022/05/12 05:00:33;;;;;;;10.73;3.57;;;15.80;99.90;;;;;;5050035;28;20462;-40
2022/05/12 05:02:59;;;;;;;5.90;3.20;;;15.80;99.90;;;;;;5055925;28;20468;-43
2022/05/12 05:05:29;;;;;;;6.03;2.83;;;15.80;99.90;;;;;;5065906;28;20463;-41
2022/05/12 05:07:56;;;;;;;5.70;3.40;;;15.80;99.90;;;;;;5068407;28;20440;-44
2022/05/12 05:10:23;;;;;;;9.47;3.67;;;15.80;99.90;;;;;;5068655;28;20467;-38
2022/05/12 05:12:50;;;;;;;4.87;3.23;;;15.80;99.90;;;;;;5068841;28;20435;-40
2022/05/12 05:15:17;;;;;;;10.63;3.97;;;15.70;99.90;;;;;;5068631;28;20481;-42
2022/05/12 05:17:45;;;;;;;10.27;4.57;;;15.80;99.90;;;;;;5068685;28;20450;-43
2022/05/12 05:20:16;;;;;;;6.37;3.23;;;15.80;99.90;;;;;;5068947;28;20443;-40
2022/05/12 05:22:45;;;;;;;5.40;2.70;;;15.80;99.90;;;;;;5068435;28;20478;-40
2022/05/12 05:25:12;;;;;;;5.70;2.67;;;15.80;99.90;;;;;;5069399;28;21145;-40
2022/05/12 05:27:39;;;;;;;8.23;2.70;;;15.80;99.90;;;;;;5069317;28;20467;-44
2022/05/12 05:30:09;;;;;;;7.20;3.13;;;15.80;99.90;;;;;;5069720;28;20442;-41
2022/05/12 05:32:36;;;;;;;3.20;2.70;;;15.90;99.90;;;;;;5066238;28;20455;-40
2022/05/12 05:35:02;;;;;;;6.23;3.27;;;15.90;99.90;;;;;;5074578;28;20443;-38
2022/05/12 05:37:29;;;;;;;5.33;3.00;;;16.00;99.90;;;;;;5067433;28;20451;-39
2022/05/12 05:39:57;;;;;;;5.43;2.27;;;16.00;99.90;;;;;;5078626;28;20441;-39
2022/05/12 05:42:24;;;;;;;9.80;2.60;;;15.90;99.90;;;;;;5073597;28;20475;-38
2022/05/12 05:44:51;;;;;;;4.27;2.33;;;15.80;99.90;;;;;;5082963;28;20462;-37
2022/05/12 05:47:17;;;;;;;4.87;1.97;;;15.80;99.90;;;;;;5088031;28;20516;-37
2022/05/12 05:49:44;;;;;;;2.80;1.87;;;15.80;99.90;;;;;;5087356;28;20470;-41
2022/05/12 05:54:57;;;;;;;3.73;1.40;;;15.70;99.90;;;;;;5087961;28;20469;-38
2022/05/12 05:57:25;;;;;;;9.70;2.40;;;15.60;99.90;;;;;;5088592;28;20442;-43
2022/05/12 05:59:53;;;;;;;3.77;2.07;;;15.60;99.90;;;;;;5088716;28;20450;-38
2022/05/12 06:02:22;;;;;;;6.30;1.87;;;15.60;99.90;;;;;;5088225;28;20498;-41
2022/05/12 06:04:49;;;;;;;2.70;1.73;;;15.70;99.90;;;;;;5088520;28;20455;-37
2022/05/12 06:07:15;;;;;;;3.43;1.60;;;15.70;99.90;;;;;;5088807;28;20485;-42
2022/05/12 06:09:43;;;;;;;2.00;1.80;;;15.70;99.90;;;;;;5087308;28;20451;-42
2022/05/12 06:12:12;;;;;;;4.43;1.40;;;15.80;99.90;;;;;;5086711;28;20524;-39
2022/05/12 06:14:39;;;;;;;2.03;1.60;;;15.80;99.90;;;;;;5087762;28;20458;-43
2022/05/12 06:17:06;;;;;;;4.93;1.47;;;15.80;99.90;;;;;;5088157;28;20534;-41
2022/05/12 06:19:33;;;;;;;3.87;1.50;;;15.70;99.90;;;;;;5087439;28;20438;-42
2022/05/12 06:22:00;;;;;;;2.13;1.40;;;15.80;99.90;;;;;;5087626;28;20489;-40
2022/05/12 06:24:26;;;;;;;2.37;1.77;;;15.90;99.90;;;;;;5087259;28;20550;-40
2022/05/12 06:26:53;;;;;;;5.50;1.80;;;16.00;99.90;;;;;;5088019;28;20442;-40
2022/05/12 06:29:21;;;;;;;1.63;1.37;;;16.00;99.90;;;;;;5086410;28;20561;-42
2022/05/12 06:31:48;;;;;;;2.63;1.37;;;16.10;99.90;;;;;;5086724;28;20454;-41
2022/05/12 06:34:15;;;;;;;1.30;1.10;;;16.20;99.90;;;;;;5086838;28;20477;-39
2022/05/12 06:36:43;;;;;;;3.40;1.40;;;16.20;99.90;;;;;;5085662;28;20446;-41
2022/05/12 06:39:10;;;;;;;2.03;1.17;;;16.30;99.90;;;;;;5086950;28;20474;-40
2022/05/12 06:41:37;;;;;;;1.60;1.33;;;16.30;99.90;;;;;;5086102;28;20438;-40
2022/05/12 06:44:04;;;;;;;8.23;1.50;;;16.20;99.90;;;;;;5086491;28;20450;-38
2022/05/12 06:46:33;;;;;;;2.70;1.20;;;16.10;99.90;;;;;;5086072;28;20506;-36
2022/05/12 06:49:02;;;;;;;2.50;1.13;;;16.00;99.90;;;;;;5085757;28;20492;-44
2022/05/12 06:51:28;;;;;;;3.50;1.30;;;16.10;99.90;;;;;;5086668;28;20509;-42
2022/05/12 06:53:55;;;;;;;3.73;1.23;;;16.00;99.90;;;;;;5086390;28;20427;-44
2022/05/12 06:56:22;;;;;;;2.63;1.20;;;16.00;99.90;;;;;;5086636;28;20465;-39
2022/05/12 06:58:48;;;;;;;1.30;0.90;;;16.10;99.90;;;;;;5086253;28;20454;-43
2022/05/12 07:01:15;;;;;;;1.83;1.13;;;16.30;99.90;;;;;;5084984;28;20521;-47
2022/05/12 07:03:44;;;;;;;3.00;1.10;;;16.40;99.90;;;;;;5085391;28;20839;-42
2022/05/12 07:06:11;;;;;;;2.93;1.50;;;16.40;99.90;;;;;;5085866;28;20481;-41
2022/05/12 07:08:40;;;;;;;2.33;1.27;;;16.30;99.90;;;;;;5084793;28;20450;-41
2022/05/12 07:11:07;;;;;;;4.10;1.40;;;16.40;99.90;;;;;;5084885;28;20466;-44
2022/05/12 07:13:34;;;;;;;2.60;1.67;;;16.50;99.90;;;;;;5085163;28;20466;-41
2022/05/12 07:16:02;;;;;;;2.53;1.50;;;16.60;99.90;;;;;;5084552;28;20458;-40
2022/05/12 07:18:30;;;;;;;2.13;1.07;;;16.60;99.90;;;;;;5084857;28;20477;-41
2022/05/12 07:26:40;;;;;;;3.00;1.50;;;17.00;99.90;;;;;;5092030;28;20414;-39
2022/05/12 07:29:10;;;;;;;4.33;1.60;;;17.10;99.90;;;;;;5092023;28;20450;-40
2022/05/12 07:31:37;;;;;;;2.57;1.60;;;17.20;99.90;;;;;;5083540;28;20454;-43
2022/05/12 07:34:04;;;;;;;2.53;1.60;;;17.20;99.90;;;;;;5083047;28;20447;-38
2022/05/12 07:36:35;;;;;;;1.43;1.20;;;17.10;99.90;;;;;;5084555;28;20968;-42
2022/05/12 07:39:02;;;;;;;1.30;1.00;;;16.80;99.90;;;;;;5084716;28;20441;-42
2022/05/12 07:41:29;;;;;;;3.20;1.30;;;16.60;99.90;;;;;;5084940;28;20466;-41
2022/05/12 07:43:57;;;;;;;2.27;1.00;;;16.50;99.90;;;;;;5084419;28;20477;-42
2022/05/12 07:46:27;;;;;;;1.67;1.17;;;16.50;99.90;;;;;;5082550;28;20869;-43
2022/05/12 07:48:54;;;;;;;3.73;1.20;;;17.00;99.90;;;;;;5078329;28;20469;-44
2022/05/12 07:51:21;;;;;;;1.37;1.00;;;18.20;99.90;;;;;;5077982;28;20476;-42
2022/05/12 07:53:50;;;;;;;2.13;1.00;;;18.90;99.90;;;;;;5077669;28;20431;-43
2022/05/12 07:56:20;;;;;;;1.23;1.00;;;19.80;99.90;;;;;;5077538;28;20501;-45
2022/05/12 07:58:47;;;;;;;4.00;1.17;;;20.20;99.90;;;;;;5077793;28;20446;-46
2022/05/12 08:01:15;;;;;;;3.50;1.00;;;19.80;99.90;;;;;;5078026;28;20538;-41
2022/05/12 08:03:41;;;;;;;1.20;0.83;;;19.10;99.90;;;;;;5077519;28;20486;-41
2022/05/12 08:06:09;;;;;;;1.30;1.00;;;18.60;99.90;;;;;;5077292;28;20468;-42
2022/05/12 08:08:36;;;;;;;2.20;1.10;;;18.10;99.90;;;;;;5077843;28;20481;-41
2022/05/12 08:11:06;;;;;;;1.60;1.17;;;17.70;99.90;;;;;;5077592;28;20511;-42
2022/05/12 08:13:33;;;;;;;1.20;0.90;;;17.40;99.90;;;;;;5078153;28;20478;-40
2022/05/12 08:16:04;;;;;;;1.40;0.90;;;17.10;99.90;;;;;;5078401;28;20518;-43
2022/05/12 08:18:32;;;;;;;1.20;0.80;;;17.30;99.90;;;;;;5078055;28;20431;-44
2022/05/12 08:20:59;;;;;;;1.60;1.03;;;18.20;99.90;;;;;;5077069;28;20541;-40
2022/05/12 08:23:26;;;;;;;2.07;1.40;;;19.40;99.90;;;;;;5079520;28;20474;-49
2022/05/12 08:25:53;;;;;;;2.27;0.90;;;20.80;99.90;;;;;;5078568;28;21008;-40
2022/05/12 08:28:23;;;;;;;4.83;1.43;;;22.20;99.10;;;;;;5079269;28;20450;-49
2022/05/12 08:30:52;;;;;;;1.67;1.10;;;22.90;96.40;;;;;;5079590;28;20485;-44
2022/05/12 08:33:23;;;;;;;1.43;1.17;;;23.60;93.90;;;;;;5079507;28;20438;-42
2022/05/12 08:35:51;;;;;;;2.03;1.00;;;24.00;90.00;;;;;;5079360;28;20431;-49
2022/05/12 08:38:20;;;;;;;1.30;0.80;;;24.70;83.00;;;;;;5075691;28;20438;-46
2022/05/12 08:40:53;;;;;;;2.00;1.03;;;24.40;82.40;;;;;;5074072;28;20441;-35
2022/05/12 08:43:26;;;;;;;1.97;1.03;;;24.10;80.60;;;;;;5075639;28;20459;-43
2022/05/12 08:45:56;;;;;;;6.10;1.90;;;23.70;82.30;;;;;;5075393;28;20420;-39
2022/05/12 08:48:23;;;;;;;2.50;1.53;;;23.00;81.50;;;;;;5075392;28;20483;-37
2022/05/12 08:50:53;;;;;;;1.23;1.00;;;22.30;81.30;;;;;;5074835;28;20507;-41
2022/05/12 08:53:25;;;;;;;4.50;1.10;;;22.60;81.80;;;;;;5075339;28;20451;-45
2022/05/12 08:55:56;;;;;;;1.73;1.00;;;22.70;80.40;;;;;;5075728;28;20454;-35
2022/05/12 08:58:30;;;;;;;3.30;1.40;;;22.30;81.70;;;;;;5075761;28;20461;-43
2022/05/12 09:01:02;;;;;;;3.97;1.40;;;22.30;82.30;;;;;;5078689;28;20435;-40
2022/05/12 09:03:39;;;;;;;1.67;1.10;;;23.20;80.90;;;;;;5079061;28;20515;-42
2022/05/12 09:06:14;;;;;;;1.50;1.20;;;24.20;76.40;;;;;;5078570;28;20883;-35
2022/05/12 09:08:47;;;;;;;1.53;1.13;;;24.20;75.80;;;;;;5078739;28;20472;-39
2022/05/12 09:11:21;;;;;;;1.20;0.90;;;24.40;74.70;;;;;;5078993;28;20435;-35
2022/05/12 09:13:53;;;;;;;3.70;1.30;;;24.50;72.50;;;;;;5079130;28;20484;-45
2022/05/12 09:16:22;;;;;;;1.43;1.17;;;23.30;74.30;;;;;;5078634;28;20473;-38
2022/05/12 09:18:50;;;;;;;1.80;1.20;;;22.40;75.30;;;;;;5078695;28;20470;-44
2022/05/12 09:21:25;;;;;;;1.73;1.10;;;21.40;75.60;;;;;;5079248;28;20475;-36
2022/05/12 09:23:54;;;;;;;1.20;1.00;;;21.40;77.80;;;;;;5078919;28;20530;-43
2022/05/12 09:26:33;;;;;;;3.20;1.47;;;22.20;74.90;;;;;;5078596;28;20455;-36
2022/05/12 09:29:11;;;;;;;1.37;1.07;;;22.70;73.50;;;;;;5078886;28;20416;-36
2022/05/12 09:31:39;;;;;;;2.30;1.40;;;23.40;72.30;;;;;;5078905;28;20423;-41
2022/05/12 09:34:31;;;;;;;1.60;1.17;;;23.00;73.30;;;;;;5078451;28;20424;-37
2022/05/12 09:37:16;;;;;;;2.20;1.63;;;22.00;75.00;;;;;;5078140;28;20440;-36
2022/05/12 09:39:45;;;;;;;1.53;1.10;;;21.10;78.90;;;;;;5078270;28;20463;-42
2022/05/12 09:42:26;;;;;;;9.03;1.30;;;21.30;80.30;;;;;;5077634;28;20455;-37
2022/05/12 09:44:56;;;;;;;1.20;1.00;;;21.50;81.00;;;;;;5077462;28;20490;-42
2022/05/12 09:47:24;;;;;;;4.10;1.30;;;22.00;76.00;;;;;;5078089;28;20428;-43
2022/05/12 09:49:51;;;;;;;1.90;1.43;;;22.40;73.70;;;;;;5078034;28;20447;-43
2022/05/12 09:52:40;;;;;;;1.53;1.10;;;22.80;73.60;;;;;;5076285;28;20467;-41
2022/05/12 09:55:27;;;;;;;1.43;1.17;;;23.60;71.60;;;;;;5073851;28;20518;-39
2022/05/12 09:57:56;;;;;;;2.00;1.00;;;23.30;68.80;;;;;;5077635;28;20423;-45
2022/05/12 10:00:39;;;;;;;1.50;1.20;;;22.60;70.80;;;;;;5077797;28;20451;-40
2022/05/12 10:08:44;;;;;;;1.80;1.30;;;21.50;72.40;;;;;;5033902;28;20442;-41
2022/05/12 10:11:13;;;;;;;1.73;1.37;;;21.90;73.00;;;;;;5076509;28;20419;-34
2022/05/12 10:13:45;;;;;;;2.60;1.60;;;22.70;71.20;;;;;;5077474;28;20469;-40
2022/05/12 10:16:17;;;;;;;3.20;1.23;;;23.10;70.30;;;;;;5077470;28;20475;-41
2022/05/12 10:18:48;;;;;;;3.50;1.70;;;23.30;69.20;;;;;;5077389;28;20471;-36
2022/05/12 10:21:20;;;;;;;3.10;1.23;;;23.80;68.60;;;;;;5077184;28;20427;-42
2022/05/12 10:23:58;;;;;;;1.30;1.10;;;23.80;68.70;;;;;;5077387;28;20495;-38
2022/05/12 10:26:35;;;;;;;2.83;1.30;;;23.10;70.80;;;;;;5077186;28;20427;-44
2022/05/12 10:29:10;;;;;;;5.80;2.13;;;23.00;71.90;;;;;;5077085;28;20459;-42
2022/05/12 10:31:46;;;;;;;3.00;1.47;;;23.10;71.90;;;;;;5077277;28;20457;-33
2022/05/12 10:34:36;;;;;;;1.80;1.10;;;23.30;68.60;;;;;;5076517;28;20462;-36
2022/05/12 10:37:08;;;;;;;3.87;1.50;;;23.60;68.00;;;;;;5063656;28;20423;-43
2022/05/12 10:39:46;;;;;;;2.77;1.10;;;23.40;65.70;;;;;;5056882;28;20547;-48
2022/05/12 10:42:27;;;;;;;2.40;1.50;;;23.50;65.70;;;;;;5055915;28;20431;-46
2022/05/12 10:45:07;;;;;;;2.03;1.30;;;23.60;66.70;;;;;;5057376;28;20467;-44
2022/05/12 10:47:58;;;;;;;1.40;1.10;;;23.70;66.30;;;;;;5055998;28;20690;-40
2022/05/12 10:50:30;;;;;;;3.00;1.10;;;23.30;68.00;;;;;;5055296;28;20439;-43
2022/05/12 10:53:04;;;;;;;2.70;1.10;;;23.20;70.40;;;;;;5055423;28;20557;-42
2022/05/12 10:55:40;;;;;;;2.90;1.10;;;23.40;69.80;;;;;;5055184;28;20482;-42
2022/05/12 10:58:21;;;;;;;2.40;1.20;;;23.10;69.50;;;;;;5055489;28;20474;-43
2022/05/12 11:01:04;;;;;;;5.27;1.40;;;23.10;71.00;;;;;;5056878;28;20435;-46
2022/05/12 11:03:39;;;;;;;1.67;1.13;;;22.80;67.70;;;;;;5055435;28;20501;-41
2022/05/12 11:06:09;;;;;;;6.00;1.30;;;22.00;69.40;;;;;;5055232;28;20772;-39
2022/05/12 11:08:42;;;;;;;1.50;1.33;;;21.40;70.40;;;;;;5055672;28;20529;-43
2022/05/12 11:11:13;;;;;;;1.97;1.30;;;20.80;72.20;;;;;;5055320;28;20435;-40
2022/05/12 11:13:46;;;;;;;1.23;1.10;;;20.80;73.40;;;;;;5054948;28;20942;-41
2022/05/12 11:16:16;;;;;;;3.93;2.00;;;20.70;74.40;;;;;;5055129;28;20427;-40
2022/05/12 11:18:52;;;;;;;7.30;1.57;;;21.00;73.90;;;;;;5054854;28;20432;-42
2022/05/12 11:21:23;;;;;;;2.93;1.50;;;21.20;72.80;;;;;;5054531;28;20439;-40
2022/05/12 11:24:23;;;;;;;2.70;1.20;;;21.30;71.50;;;;;;5054747;28;20800;-43
2022/05/12 11:27:02;;;;;;;5.10;1.43;;;21.30;72.50;;;;;;5044587;28;20454;-46
2022/05/12 11:29:44;;;;;;;1.70;1.50;;;20.90;72.30;;;;;;5056095;28;20427;-43
2022/05/12 11:32:27;;;;;;;3.30;1.43;;;20.80;73.30;;;;;;5055219;28;20454;-41
2022/05/12 11:35:04;;;;;;;3.10;1.60;;;20.80;74.40;;;;;;5055550;28;20472;-47
2022/05/12 11:37:35;;;;;;;2.33;1.50;;;20.70;74.40;;;;;;5054633;28;20934;-41
2022/05/12 11:40:06;;;;;;;3.20;1.47;;;20.70;74.30;;;;;;5054402;28;20513;-40
2022/05/12 11:45:38;;;;;;;1.70;1.20;;;20.50;73.70;;;;;;5055702;28;20442;-51
2022/05/12 11:48:18;;;;;;;2.50;1.57;;;20.60;74.80;;;;;;5054912;28;20471;-43
2022/05/12 11:51:09;;;;;;;4.03;2.57;;;20.70;74.70;;;;;;5054585;28;20474;-42
2022/05/12 11:53:57;;;;;;;3.93;1.93;;;20.60;72.60;;;;;;5054355;28;20467;-42
2022/05/12 11:56:42;;;;;;;1.90;1.00;;;20.50;73.80;;;;;;5054268;28;20443;-43
2022/05/12 11:59:16;;;;;;;2.10;1.47;;;20.50;74.20;;;;;;5054378;28;20474;-40
2022/05/12 12:01:52;;;;;;;2.00;1.37;;;20.30;72.50;;;;;;5054680;28;20469;-42
2022/05/12 12:04:46;;;;;;;1.93;1.43;;;20.00;73.60;;;;;;5053887;28;20977;-39
2022/05/12 12:07:53;;;;;;;2.27;1.43;;;20.00;74.90;;;;;;5054772;28;20473;-51
2022/05/12 12:10:38;;;;;;;2.97;1.13;;;20.10;74.90;;;;;;5056126;28;20471;-40
2022/05/12 12:13:26;;;;;;;3.10;1.20;;;20.30;74.20;;;;;;5054957;28;20485;-40
2022/05/12 12:16:11;;;;;;;3.00;2.33;;;20.40;73.90;;;;;;5054032;28;20924;-45
2022/05/12 12:19:04;;;;;;;2.03;1.57;;;20.40;72.40;;;;;;5054519;28;20488;-42
2022/05/12 12:22:12;;;;;;;2.43;1.37;;;20.40;72.80;;;;;;5054143;28;20475;-43
2022/05/12 12:24:59;;;;;;;4.60;1.57;;;20.50;73.00;;;;;;5053836;28;21001;-41
2022/05/12 12:28:11;;;;;;;3.30;1.57;;;20.30;73.10;;;;;;5054302;28;20490;-40
2022/05/12 12:31:04;;;;;;;2.33;1.17;;;20.30;71.80;;;;;;5054642;28;20431;-40
2022/05/12 12:33:40;;;;;;;1.30;1.20;;;20.30;73.10;;;;;;5049585;28;20481;-40
2022/05/12 12:36:28;;;;;;;14.50;10.77;;;20.20;72.20;;;;;;5060103;28;20431;-43
2022/05/12 12:39:07;;;;;;;3.33;1.97;;;20.00;72.60;;;;;;5058153;28;20471;-39
2022/05/12 12:41:38;;;;;;;1.97;1.40;;;20.10;73.70;;;;;;5058107;28;20917;-43
2022/05/12 12:44:11;;;;;;;2.30;1.43;;;19.90;72.90;;;;;;5058018;28;20490;-41
2022/05/12 12:46:52;;;;;;;2.93;1.60;;;19.80;73.40;;;;;;5058497;28;20428;-42
2022/05/12 12:49:23;;;;;;;2.77;1.30;;;19.60;72.70;;;;;;5058305;28;20478;-46
2022/05/12 12:51:57;;;;;;;1.20;1.03;;;19.70;72.10;;;;;;5058462;28;21136;-46
2022/05/12 12:57:13;;;;;;;3.47;1.10;;;19.90;72.40;;;;;;5057928;28;20411;-43
2022/05/12 12:59:43;;;;;;;1.30;1.20;;;19.90;71.80;;;;;;5058669;28;20427;-45
2022/05/12 13:02:28;;;;;;;2.60;1.37;;;19.80;72.80;;;;;;5059270;28;20505;-42
2022/05/12 13:04:56;;;;;;;2.03;1.13;;;19.80;72.40;;;;;;5057607;28;20973;-39
2022/05/12 13:07:29;;;;;;;3.00;1.10;;;19.80;72.50;;;;;;5057402;28;20485;-41
2022/05/12 13:09:56;;;;;;;4.93;1.10;;;19.80;73.10;;;;;;5057670;28;20860;-43
2022/05/12 13:12:27;;;;;;;1.30;1.03;;;20.00;73.20;;;;;;5057407;28;20466;-43
2022/05/12 13:14:56;;;;;;;3.27;0.93;;;20.20;71.90;;;;;;5057731;28;20454;-41
2022/05/12 13:17:27;;;;;;;2.13;1.23;;;20.20;71.70;;;;;;5057435;28;20471;-41
2022/05/12 13:19:56;;;;;;;1.30;1.20;;;20.20;71.40;;;;;;5057378;28;20432;-43
2022/05/12 13:22:26;;;;;;;2.20;1.30;;;20.20;70.70;;;;;;5057547;28;20473;-41
2022/05/12 13:24:53;;;;;;;2.90;1.13;;;20.20;70.80;;;;;;5058130;28;20545;-45
2022/05/12 13:27:26;;;;;;;2.53;1.43;;;20.40;70.50;;;;;;5057988;28;20908;-42
2022/05/12 13:29:53;;;;;;;2.43;1.40;;;20.40;70.30;;;;;;5057074;28;20471;-40